Time;durP1;ratioP1;P1;durP2;ratioP2;P2;SDS_P1;SDS_P2;PMS_P1;PMS_P2;Temp;Humidity;BMP_temperature;BMP_pressure;BME280_temperature;BME280_humidity;BME280_pressure;Samples;Min_cycle;Max_cycle;Signal;HPM_P1;HPM_P2
2021/11/03 00:01:57;;;;;;;;;89.00;83.00;12.20;67.40;;;;;;5033661;28;8806;-59
2021/11/03 00:04:23;;;;;;;;;89.75;87.00;12.50;66.80;;;;;;5034592;28;8787;-58
2021/11/03 00:06:48;;;;;;;;;79.50;66.25;12.60;66.10;;;;;;5034440;28;8776;-59
2021/11/03 00:09:14;;;;;;;;;81.25;68.75;12.70;65.40;;;;;;5034177;28;8782;-59
2021/11/03 00:11:40;;;;;;;;;81.25;72.50;12.60;65.50;;;;;;5034158;28;8771;-61
2021/11/03 00:14:06;;;;;;;;;81.25;71.75;12.00;67.50;;;;;;5037657;28;9547;-61
2021/11/03 00:16:33;;;;;;;;;82.00;74.00;11.90;68.30;;;;;;5038362;28;8760;-60
2021/11/03 00:18:59;;;;;;;;;81.50;71.75;11.70;69.00;;;;;;5037559;28;8798;-58
2021/11/03 00:21:24;;;;;;;;;82.25;75.25;11.80;69.00;;;;;;5037664;28;8799;-58
2021/11/03 00:23:51;;;;;;;;;76.75;62.00;11.90;68.60;;;;;;5037835;28;8771;-57
2021/11/03 00:26:16;;;;;;;;;82.25;70.25;11.80;69.00;;;;;;5037859;28;8767;-60
2021/11/03 00:28:42;;;;;;;;;80.25;71.50;12.10;68.40;;;;;;5038067;28;8767;-58
2021/11/03 00:31:08;;;;;;;;;80.00;68.50;12.30;68.20;;;;;;5037995;28;8759;-60
2021/11/03 00:33:34;;;;;;;;;77.50;64.25;12.40;67.40;;;;;;5037226;28;8829;-57
2021/11/03 00:36:00;;;;;;;;;81.00;72.00;12.30;67.50;;;;;;5037776;28;8890;-59
2021/11/03 00:38:27;;;;;;;;;84.25;77.75;11.90;68.50;;;;;;5037589;28;8781;-58
2021/11/03 00:40:53;;;;;;;;;80.75;69.00;11.70;69.40;;;;;;5037860;28;8774;-58
2021/11/03 00:43:20;;;;;;;;;84.75;80.50;11.70;69.70;;;;;;5037513;28;8799;-59
2021/11/03 00:45:46;;;;;;;;;81.25;74.00;11.70;69.60;;;;;;5037583;28;8844;-58
2021/11/03 00:48:13;;;;;;;;;88.00;76.75;11.80;69.20;;;;;;5037079;28;8803;-57
2021/11/03 00:50:39;;;;;;;;;88.00;83.00;11.80;69.30;;;;;;5037733;28;8803;-60
2021/11/03 00:53:06;;;;;;;;;96.00;95.50;11.90;69.20;;;;;;5037862;28;9519;-54
2021/11/03 00:55:32;;;;;;;;;89.00;87.50;11.60;70.60;;;;;;5037507;28;8803;-59
2021/11/03 00:57:58;;;;;;;;;88.25;85.00;11.40;71.00;;;;;;5037267;28;9494;-59
2021/11/03 01:00:23;;;;;;;;;82.25;77.00;11.90;69.90;;;;;;5037460;28;8789;-59
2021/11/03 01:02:49;;;;;;;;;85.75;78.00;11.90;69.40;;;;;;5037230;28;8858;-58
2021/11/03 01:05:18;;;;;;;;;85.25;82.75;12.20;68.60;;;;;;5036729;28;9430;-61
2021/11/03 01:07:43;;;;;;;;;76.00;64.75;12.10;68.60;;;;;;5037073;28;8783;-58
2021/11/03 01:10:11;;;;;;;;;81.50;68.25;11.90;69.10;;;;;;5037421;28;8885;-58
2021/11/03 01:12:37;;;;;;;;;76.00;65.75;12.00;68.90;;;;;;5037250;28;8786;-61
2021/11/03 01:15:05;;;;;;;;;70.25;57.00;12.50;67.40;;;;;;5037086;28;8822;-60
2021/11/03 01:17:31;;;;;;;;;70.00;58.00;12.20;69.50;;;;;;5036954;28;8785;-61
2021/11/03 01:19:57;;;;;;;;;70.25;57.50;12.40;67.90;;;;;;5036398;28;8898;-58
2021/11/03 01:22:22;;;;;;;;;70.50;58.25;12.30;67.80;;;;;;5036530;28;8957;-56
2021/11/03 01:24:48;;;;;;;;;70.50;58.50;11.70;70.10;;;;;;5035849;28;8870;-59
2021/11/03 01:27:14;;;;;;;;;75.75;63.75;11.40;71.20;;;;;;5036677;28;8775;-60
2021/11/03 01:29:40;;;;;;;;;79.75;69.75;11.60;71.50;;;;;;5036744;28;8790;-58
2021/11/03 01:32:06;;;;;;;;;79.00;68.50;11.70;70.30;;;;;;5036657;28;8767;-59
2021/11/03 01:34:32;;;;;;;;;74.25;62.75;11.70;70.60;;;;;;5036781;28;8803;-60
2021/11/03 01:36:58;;;;;;;;;77.00;65.75;11.70;71.10;;;;;;5036207;28;8810;-59
2021/11/03 01:39:23;;;;;;;;;72.75;60.00;11.80;69.90;;;;;;5035916;28;8917;-59
2021/11/03 01:41:50;;;;;;;;;70.25;58.00;11.90;69.50;;;;;;5036463;28;8806;-55
2021/11/03 01:44:18;;;;;;;;;67.00;56.00;12.20;68.60;;;;;;5036534;28;8792;-59
2021/11/03 01:46:56;;;;;;;;;63.50;52.75;12.50;67.50;;;;;;5036640;28;8771;-57
2021/11/03 01:49:29;;;;;;;;;65.25;54.00;12.30;67.90;;;;;;5036266;28;8791;-58
2021/11/03 01:52:03;;;;;;;;;59.75;50.00;12.30;68.30;;;;;;5036456;28;8818;-57
2021/11/03 01:54:58;;;;;;;;;65.25;53.25;12.20;68.20;;;;;;5036068;28;8911;-59
2021/11/03 01:57:31;;;;;;;;;69.75;56.25;12.20;68.80;;;;;;5012527;28;9014;-58
2021/11/03 02:00:01;;;;;;;;;69.00;56.00;12.30;68.60;;;;;;5014385;28;8768;-56
2021/11/03 02:02:27;;;;;;;;;63.75;53.25;12.50;68.10;;;;;;5012552;28;9570;-59
2021/11/03 02:04:54;;;;;;;;;57.00;49.00;12.60;67.80;;;;;;5014281;28;8875;-59
2021/11/03 02:07:25;;;;;;;;;62.50;51.25;12.40;68.70;;;;;;5014154;28;8887;-60
2021/11/03 02:09:51;;;;;;;;;54.25;46.75;12.20;69.30;;;;;;5013653;28;8780;-59
2021/11/03 02:12:25;;;;;;;;;56.00;46.75;12.00;69.90;;;;;;5013815;28;8850;-57
2021/11/03 02:14:52;;;;;;;;;63.75;53.25;11.70;71.00;;;;;;5013947;28;8843;-58
2021/11/03 02:17:19;;;;;;;;;58.50;49.50;11.60;71.50;;;;;;5013914;28;8792;-58
2021/11/03 02:19:46;;;;;;;;;58.25;49.25;11.60;71.50;;;;;;5013947;28;8749;-57
2021/11/03 02:22:34;;;;;;;;;52.75;44.50;11.40;72.10;;;;;;5013583;28;8840;-59
2021/11/03 02:25:17;;;;;;;;;50.25;43.75;11.60;71.70;;;;;;5013438;28;8816;-60
2021/11/03 02:27:46;;;;;;;;;55.50;47.50;11.60;71.70;;;;;;5013677;28;8804;-57
2021/11/03 02:30:17;;;;;;;;;54.50;46.50;11.60;71.90;;;;;;5013659;28;8784;-56
2021/11/03 02:32:43;;;;;;;;;49.50;42.75;11.50;72.30;;;;;;5015167;28;8768;-58
2021/11/03 02:35:12;;;;;;;;;52.75;45.00;11.40;72.60;;;;;;5035269;28;8935;-59
2021/11/03 02:37:43;;;;;;;;;49.50;43.00;11.30;73.20;;;;;;5035712;28;8759;-63
2021/11/03 02:40:51;;;;;;;;;51.00;43.50;11.20;73.60;;;;;;5034997;28;8822;-59
2021/11/03 02:43:20;;;;;;;;;49.75;42.25;11.30;73.50;;;;;;5029188;28;8779;-59
2021/11/03 02:45:52;;;;;;;;;47.25;39.00;11.40;73.10;;;;;;5035249;28;8779;-59
2021/11/03 02:48:19;;;;;;;;;49.00;42.50;11.40;74.00;;;;;;5035466;28;8873;-56
2021/11/03 02:51:23;;;;;;;;;50.75;44.00;11.30;73.20;;;;;;5035163;28;8763;-58
2021/11/03 02:53:53;;;;;;;;;50.50;43.50;11.30;73.40;;;;;;5025909;28;8839;-58
2021/11/03 02:56:24;;;;;;;;;49.25;43.25;11.40;74.10;;;;;;5025204;28;8817;-59
2021/11/03 02:58:50;;;;;;;;;49.25;42.50;11.40;73.40;;;;;;5024084;28;8849;-58
2021/11/03 03:01:30;;;;;;;;;49.25;42.25;11.60;72.80;;;;;;5034971;28;8775;-57
2021/11/03 03:03:56;;;;;;;;;52.75;43.75;11.60;72.40;;;;;;5034968;28;8779;-57
2021/11/03 03:06:25;;;;;;;;;51.25;44.75;11.20;74.30;;;;;;5034965;28;8763;-57
2021/11/03 03:08:52;;;;;;;;;43.50;39.25;11.30;74.60;;;;;;5034439;28;8783;-55
2021/11/03 03:11:20;;;;;;;;;50.00;43.00;11.30;74.70;;;;;;5034842;28;8771;-57
2021/11/03 03:13:49;;;;;;;;;52.75;45.25;11.20;75.10;;;;;;5034960;28;8902;-57
2021/11/03 03:16:15;;;;;;;;;46.25;40.25;11.40;74.50;;;;;;5034934;28;8767;-57
2021/11/03 03:18:41;;;;;;;;;51.50;43.75;11.70;73.50;;;;;;5034767;28;8856;-58
2021/11/03 03:21:06;;;;;;;;;45.75;41.75;11.50;74.10;;;;;;5034523;28;8866;-60
2021/11/03 03:23:32;;;;;;;;;50.00;42.25;11.30;75.10;;;;;;5034048;28;8852;-59
2021/11/03 03:25:59;;;;;;;;;48.25;41.25;11.10;76.00;;;;;;5034639;28;8799;-60
2021/11/03 03:28:25;;;;;;;;;51.75;44.50;11.20;75.90;;;;;;5034669;28;8802;-57
2021/11/03 03:30:51;;;;;;;;;50.25;43.25;11.20;75.90;;;;;;5034552;28;8779;-60
2021/11/03 03:33:17;;;;;;;;;42.50;38.75;11.10;76.00;;;;;;5034583;28;8925;-59
2021/11/03 03:35:43;;;;;;;;;45.25;39.00;11.20;76.00;;;;;;5034381;28;8802;-58
2021/11/03 03:38:09;;;;;;;;;47.00;41.00;11.50;74.50;;;;;;5034517;28;9458;-57
2021/11/03 03:40:35;;;;;;;;;46.75;42.25;11.30;75.20;;;;;;5034110;28;8794;-59
2021/11/03 03:43:00;;;;;;;;;43.75;39.00;11.60;73.70;;;;;;5034834;28;8795;-58
2021/11/03 03:45:26;;;;;;;;;55.00;47.00;11.80;73.00;;;;;;5034779;28;9430;-59
2021/11/03 03:47:52;;;;;;;;;55.00;47.25;11.80;72.40;;;;;;5034088;28;8764;-56
2021/11/03 03:50:18;;;;;;;;;54.00;45.50;11.50;73.50;;;;;;5034663;28;8894;-57
2021/11/03 03:52:44;;;;;;;;;55.00;46.50;11.40;74.00;;;;;;5034577;28;8799;-54
2021/11/03 03:55:10;;;;;;;;;57.00;48.50;11.50;73.40;;;;;;5033782;28;8815;-57
2021/11/03 03:57:36;;;;;;;;;51.50;44.50;11.50;73.30;;;;;;5034307;28;8763;-56
2021/11/03 04:00:11;;;;;;;;;55.50;47.50;11.30;74.00;;;;;;5034234;28;8787;-58
2021/11/03 04:02:37;;;;;;;;;54.25;46.25;11.00;75.50;;;;;;5034465;28;8767;-58
2021/11/03 04:05:04;;;;;;;;;53.50;46.00;11.00;75.30;;;;;;5034131;28;8786;-56
2021/11/03 04:07:30;;;;;;;;;53.50;46.00;11.20;74.40;;;;;;5034182;28;8848;-60
2021/11/03 04:09:56;;;;;;;;;54.00;46.00;11.40;73.50;;;;;;5033719;28;8792;-58
2021/11/03 04:12:21;;;;;;;;;51.25;44.25;11.80;71.30;;;;;;5034141;28;8791;-60
2021/11/03 04:14:47;;;;;;;;;47.00;41.00;11.40;72.90;;;;;;5034212;28;8807;-60
2021/11/03 04:17:13;;;;;;;;;49.75;43.25;11.30;73.40;;;;;;5034091;28;8771;-58
2021/11/03 04:19:39;;;;;;;;;48.50;42.50;11.50;72.10;;;;;;5034239;28;8890;-58
2021/11/03 04:22:05;;;;;;;;;49.75;43.25;11.60;71.80;;;;;;5033817;28;9485;-58
2021/11/03 04:24:32;;;;;;;;;56.00;47.25;11.60;72.00;;;;;;5033973;28;8787;-59
2021/11/03 04:26:57;;;;;;;;;53.00;45.25;11.80;70.60;;;;;;5033512;28;8791;-58
2021/11/03 04:29:24;;;;;;;;;48.75;41.25;12.00;69.60;;;;;;5034184;28;8779;-58
2021/11/03 04:31:50;;;;;;;;;57.25;49.25;12.00;69.40;;;;;;5034024;28;8787;-59
2021/11/03 04:34:16;;;;;;;;;60.00;51.00;11.90;69.60;;;;;;5033841;28;8831;-58
2021/11/03 04:36:42;;;;;;;;;61.00;51.25;11.70;70.10;;;;;;5033912;28;8779;-59
2021/11/03 04:39:10;;;;;;;;;60.00;51.00;12.00;69.40;;;;;;5032429;28;8864;-60
2021/11/03 04:41:37;;;;;;;;;53.00;45.50;11.90;69.60;;;;;;5033597;28;8884;-57
2021/11/03 04:44:04;;;;;;;;;56.25;48.00;11.50;71.10;;;;;;5034238;28;8783;-56
2021/11/03 04:46:30;;;;;;;;;52.50;44.50;11.00;73.30;;;;;;5033789;28;8791;-56
2021/11/03 04:48:57;;;;;;;;;50.75;43.75;10.70;74.80;;;;;;5032752;28;8902;-58
2021/11/03 04:51:23;;;;;;;;;49.00;42.25;10.50;75.60;;;;;;5033694;28;8854;-58
2021/11/03 04:53:50;;;;;;;;;53.00;45.00;10.50;76.00;;;;;;5033656;28;8814;-57
2021/11/03 04:56:19;;;;;;;;;51.75;44.00;10.90;74.80;;;;;;5033596;28;9520;-56
2021/11/03 04:58:46;;;;;;;;;56.25;48.00;11.10;73.20;;;;;;5032998;28;8782;-61
2021/11/03 05:01:12;;;;;;;;;54.00;46.00;11.50;72.40;;;;;;5037178;28;8818;-59
2021/11/03 05:03:38;;;;;;;;;56.00;48.00;11.60;72.00;;;;;;5037419;28;8774;-60
2021/11/03 05:06:05;;;;;;;;;63.50;50.00;11.30;73.20;;;;;;5037366;28;8771;-60
2021/11/03 05:08:31;;;;;;;;;54.00;46.25;11.20;74.10;;;;;;5037176;28;8751;-61
2021/11/03 05:10:57;;;;;;;;;52.00;44.50;11.50;74.00;;;;;;5037168;28;8756;-60
2021/11/03 05:13:23;;;;;;;;;52.25;45.00;11.50;73.40;;;;;;5036634;28;8877;-57
2021/11/03 05:15:51;;;;;;;;;56.50;47.75;11.70;73.00;;;;;;5036888;28;8834;-59
2021/11/03 05:18:17;;;;;;;;;54.00;46.25;11.90;72.10;;;;;;5037302;28;8779;-56
2021/11/03 05:20:44;;;;;;;;;56.75;48.50;11.60;72.70;;;;;;5037108;28;9504;-56
2021/11/03 05:23:10;;;;;;;;;50.75;43.75;11.20;74.20;;;;;;5036705;28;8847;-58
2021/11/03 05:25:35;;;;;;;;;57.00;48.00;11.20;74.90;;;;;;5037060;28;8917;-58
2021/11/03 05:28:01;;;;;;;;;56.25;48.25;11.40;74.40;;;;;;5036818;28;8771;-57
2021/11/03 05:30:29;;;;;;;;;55.75;47.75;11.60;74.60;;;;;;5036760;28;8787;-65
2021/11/03 05:32:56;;;;;;;;;54.50;46.50;11.60;73.50;;;;;;5036693;28;8785;-58
2021/11/03 05:35:22;;;;;;;;;59.00;50.00;11.50;74.00;;;;;;5036593;28;8810;-60
2021/11/03 05:37:48;;;;;;;;;48.75;42.00;11.70;73.60;;;;;;5036614;28;8783;-59
2021/11/03 05:40:19;;;;;;;;;63.50;53.25;11.40;74.50;;;;;;5036164;28;8884;-58
2021/11/03 05:42:45;;;;;;;;;72.00;59.75;11.20;75.40;;;;;;5036385;28;8897;-60
2021/11/03 05:45:11;;;;;;;;;69.50;56.00;11.30;75.50;;;;;;5036555;28;8775;-58
2021/11/03 05:47:37;;;;;;;;;67.50;54.50;11.50;74.20;;;;;;5036449;28;8767;-59
2021/11/03 05:50:06;;;;;;;;;70.00;57.00;11.70;73.10;;;;;;5036574;28;8797;-64
2021/11/03 05:52:32;;;;;;;;;74.75;62.25;11.80;72.10;;;;;;5036560;28;8798;-63
2021/11/03 05:54:58;;;;;;;;;70.00;56.50;11.90;71.50;;;;;;5035698;28;8802;-64
2021/11/03 05:57:34;;;;;;;;;64.00;53.25;12.00;70.80;;;;;;5036595;28;8887;-62
2021/11/03 06:00:04;;;;;;;;;64.00;53.75;11.80;71.30;;;;;;5036082;28;8992;-62
2021/11/03 06:02:30;;;;;;;;;61.00;51.00;11.70;71.50;;;;;;5036008;28;8783;-61
2021/11/03 06:04:56;;;;;;;;;66.50;55.00;11.50;72.50;;;;;;5036164;28;8843;-61
2021/11/03 06:07:21;;;;;;;;;64.50;54.00;11.40;73.00;;;;;;5035972;28;8821;-60
2021/11/03 06:09:47;;;;;;;;;71.50;59.00;11.00;75.20;;;;;;5035314;28;8784;-60
2021/11/03 06:12:14;;;;;;;;;76.25;63.50;11.20;75.20;;;;;;5035776;28;8905;-60
2021/11/03 06:14:39;;;;;;;;;67.00;54.50;11.00;76.20;;;;;;5035758;28;8908;-61
2021/11/03 06:17:06;;;;;;;;;68.25;56.25;10.80;77.40;;;;;;5035201;28;8776;-62
2021/11/03 06:19:32;;;;;;;;;66.00;54.00;10.90;77.90;;;;;;5035149;28;8897;-58
2021/11/03 06:21:58;;;;;;;;;72.75;58.50;11.00;77.10;;;;;;5034796;28;8827;-60
2021/11/03 06:24:27;;;;;;;;;70.50;58.00;10.80;77.80;;;;;;5035806;28;8902;-61
2021/11/03 06:26:53;;;;;;;;;76.00;62.25;10.80;78.50;;;;;;5033142;28;8890;-62
2021/11/03 06:29:19;;;;;;;;;78.50;68.00;11.00;77.80;;;;;;5030166;28;8786;-62
2021/11/03 06:31:45;;;;;;;;;69.75;57.75;10.90;77.80;;;;;;5034328;28;8799;-61
2021/11/03 06:34:11;;;;;;;;;71.50;58.25;10.80;78.60;;;;;;5035114;28;8811;-58
2021/11/03 06:36:37;;;;;;;;;70.25;58.25;10.60;79.40;;;;;;5035405;28;8763;-63
2021/11/03 06:39:09;;;;;;;;;70.50;58.00;10.70;79.80;;;;;;5035446;28;8793;-61
2021/11/03 06:41:36;;;;;;;;;73.00;60.25;10.80;79.10;;;;;;5034530;28;8855;-64
2021/11/03 06:44:03;;;;;;;;;71.00;56.50;10.80;79.50;;;;;;5035583;28;8802;-60
2021/11/03 06:46:29;;;;;;;;;71.75;58.00;10.70;79.80;;;;;;5035247;28;8826;-60
2021/11/03 06:48:55;;;;;;;;;69.00;55.50;10.80;80.00;;;;;;5035238;28;8752;-62
2021/11/03 06:51:21;;;;;;;;;75.00;60.50;10.90;79.20;;;;;;5035247;28;8764;-60
2021/11/03 06:53:47;;;;;;;;;70.25;58.00;11.00;78.90;;;;;;5035305;28;9564;-61
2021/11/03 06:56:13;;;;;;;;;67.50;55.50;11.00;79.10;;;;;;5035116;28;8952;-61
2021/11/03 06:58:38;;;;;;;;;74.50;61.00;11.00;79.60;;;;;;5032566;28;8880;-60
2021/11/03 07:01:07;;;;;;;;;73.50;60.00;11.20;77.90;;;;;;5022549;28;8829;-61
2021/11/03 07:03:34;;;;;;;;;68.50;55.75;11.50;75.00;;;;;;5034384;28;9499;-60
2021/11/03 07:06:00;;;;;;;;;70.75;59.00;11.40;74.40;;;;;;5034925;28;8864;-57
2021/11/03 07:08:26;;;;;;;;;67.50;56.00;11.70;73.20;;;;;;5034875;28;8783;-62
2021/11/03 07:10:55;;;;;;;;;66.50;54.50;11.40;73.70;;;;;;5034469;28;8779;-58
2021/11/03 07:13:22;;;;;;;;;71.25;57.50;11.40;74.00;;;;;;5034968;28;8779;-61
2021/11/03 07:15:50;;;;;;;;;70.00;58.00;11.30;73.80;;;;;;5033653;28;8835;-63
2021/11/03 07:18:16;;;;;;;;;80.75;71.50;11.20;74.60;;;;;;5034711;28;8767;-53
2021/11/03 07:20:45;;;;;;;;;79.50;69.25;11.00;75.30;;;;;;5034950;28;8800;-58
2021/11/03 07:23:12;;;;;;;;;85.50;76.50;11.30;74.90;;;;;;5033156;28;8839;-58
2021/11/03 07:25:39;;;;;;;;;76.00;65.00;11.20;74.90;;;;;;5015149;28;8777;-59
2021/11/03 07:28:04;;;;;;;;;81.75;73.25;11.20;75.50;;;;;;5026731;28;8783;-61
2021/11/03 07:30:33;;;;;;;;;79.75;66.25;11.20;75.60;;;;;;5032462;28;8818;-59
2021/11/03 07:32:59;;;;;;;;;80.75;72.00;11.20;75.70;;;;;;5030918;28;8884;-57
2021/11/03 07:35:26;;;;;;;;;74.50;63.75;11.50;74.60;;;;;;5031355;28;9442;-60
2021/11/03 07:37:53;;;;;;;;;71.75;58.50;11.60;74.20;;;;;;5031388;28;8760;-63
2021/11/03 07:40:26;;;;;;;;;73.00;58.00;11.50;74.10;;;;;;5034368;28;8779;-59
2021/11/03 07:42:53;;;;;;;;;73.50;61.25;11.40;75.20;;;;;;5034391;28;9474;-61
2021/11/03 07:45:19;;;;;;;;;69.25;56.25;11.40;75.40;;;;;;5034389;28;8791;-61
2021/11/03 07:47:45;;;;;;;;;68.25;56.50;11.60;75.30;;;;;;5033580;28;8810;-61
2021/11/03 07:50:18;;;;;;;;;71.50;56.00;11.40;76.30;;;;;;5034371;28;8763;-59
2021/11/03 07:52:44;;;;;;;;;68.00;54.50;11.40;76.90;;;;;;5034658;28;8811;-62
2021/11/03 07:55:10;;;;;;;;;67.50;54.50;11.20;77.90;;;;;;5033255;28;8799;-61
2021/11/03 07:57:36;;;;;;;;;66.00;54.25;11.30;77.90;;;;;;5034175;28;8783;-60
2021/11/03 08:00:03;;;;;;;;;73.00;60.25;11.40;77.90;;;;;;5033957;28;8794;-56
2021/11/03 08:02:29;;;;;;;;;72.25;60.75;11.50;77.60;;;;;;5033403;28;8818;-61
2021/11/03 08:04:55;;;;;;;;;69.75;57.75;11.60;77.30;;;;;;5033346;28;8795;-60
2021/11/03 08:07:21;;;;;;;;;73.50;59.50;11.60;77.50;;;;;;5033218;28;8818;-58
2021/11/03 08:09:46;;;;;;;;;76.50;66.25;11.70;77.50;;;;;;5031687;28;8818;-60
2021/11/03 08:12:15;;;;;;;;;66.50;55.25;11.70;77.70;;;;;;5030913;28;8767;-61
2021/11/03 08:14:41;;;;;;;;;71.50;59.00;11.70;77.70;;;;;;5029738;28;8833;-61
2021/11/03 08:17:15;;;;;;;;;69.25;57.25;11.80;77.70;;;;;;5034294;28;8783;-62
2021/11/03 08:19:48;;;;;;;;;69.00;56.50;11.90;76.90;;;;;;5033474;28;8918;-60
2021/11/03 08:22:19;;;;;;;;;74.50;60.50;12.20;76.10;;;;;;5033151;28;8873;-52
2021/11/03 08:24:46;;;;;;;;;67.25;54.00;12.40;75.00;;;;;;5032454;28;8782;-61
2021/11/03 08:27:11;;;;;;;;;67.50;55.50;12.30;75.60;;;;;;5030493;28;8892;-61
2021/11/03 08:29:39;;;;;;;;;73.25;59.50;12.60;75.10;;;;;;5028084;28;9565;-60
2021/11/03 08:32:07;;;;;;;;;67.75;56.25;12.70;74.60;;;;;;5034074;28;8801;-59
2021/11/03 08:34:35;;;;;;;;;71.25;57.50;12.80;74.40;;;;;;5036490;28;8795;-59
2021/11/03 08:37:05;;;;;;;;;65.00;53.25;13.00;73.90;;;;;;5037347;28;8849;-64
2021/11/03 08:39:33;;;;;;;;;70.00;56.50;13.10;73.20;;;;;;5034967;28;8771;-62
2021/11/03 08:42:00;;;;;;;;;70.25;60.25;13.30;73.40;;;;;;5035895;28;10139;-64
2021/11/03 08:44:27;;;;;;;;;71.00;57.25;13.30;73.20;;;;;;5036676;28;8874;-61
2021/11/03 08:46:53;;;;;;;;;67.00;55.00;13.70;72.20;;;;;;5037184;28;8785;-62
2021/11/03 08:49:19;;;;;;;;;68.25;56.00;13.70;72.00;;;;;;5036849;28;8866;-60
2021/11/03 08:51:44;;;;;;;;;66.75;55.25;13.50;72.60;;;;;;5037423;28;8821;-61
2021/11/03 08:54:10;;;;;;;;;71.50;59.25;13.50;73.20;;;;;;5036401;28;8921;-59
2021/11/03 08:56:40;;;;;;;;;70.50;58.50;13.50;73.60;;;;;;5032412;28;8774;-59
2021/11/03 08:59:07;;;;;;;;;71.75;57.25;13.50;73.70;;;;;;5036851;28;8943;-62
2021/11/03 09:01:33;;;;;;;;;68.75;58.50;13.60;73.60;;;;;;5037111;28;8774;-57
2021/11/03 09:03:59;;;;;;;;;68.00;56.00;13.60;73.50;;;;;;5035860;28;8915;-58
2021/11/03 09:06:25;;;;;;;;;71.25;61.75;13.80;73.40;;;;;;5037095;28;8787;-64
2021/11/03 09:08:52;;;;;;;;;71.00;62.00;14.00;72.70;;;;;;5036281;28;8765;-59
2021/11/03 09:11:19;;;;;;;;;67.50;54.00;14.00;72.20;;;;;;5037156;28;8761;-61
2021/11/03 09:13:45;;;;;;;;;70.75;59.75;14.20;71.70;;;;;;5037072;28;9464;-61
2021/11/03 09:16:12;;;;;;;;;79.50;70.75;14.20;72.00;;;;;;5035670;28;8825;-61
2021/11/03 09:18:38;;;;;;;;;82.25;75.75;14.40;71.40;;;;;;5036667;28;8808;-62
2021/11/03 09:21:07;;;;;;;;;77.75;69.50;14.50;71.00;;;;;;5036620;28;8781;-58
2021/11/03 09:23:34;;;;;;;;;70.50;58.00;14.70;70.90;;;;;;5036498;28;8809;-61
2021/11/03 09:26:01;;;;;;;;;65.25;54.00;14.80;70.00;;;;;;5036450;28;8798;-58
2021/11/03 09:28:30;;;;;;;;;63.50;52.00;14.90;70.30;;;;;;5036675;28;8788;-62
2021/11/03 09:30:57;;;;;;;;;62.75;51.00;15.30;69.20;;;;;;5036913;28;8866;-61
2021/11/03 09:33:24;;;;;;;;;55.00;46.00;15.50;68.10;;;;;;5036733;28;8773;-62
2021/11/03 09:35:52;;;;;;;;;66.00;53.00;15.20;68.90;;;;;;5036541;28;8848;-60
2021/11/03 09:38:22;;;;;;;;;60.50;50.50;15.40;68.50;;;;;;5035829;28;8770;-57
2021/11/03 09:40:59;;;;;;;;;66.50;55.50;15.50;68.10;;;;;;5036213;28;8781;-59
2021/11/03 09:43:39;;;;;;;;;71.25;58.50;15.70;68.30;;;;;;5035615;28;8962;-61
2021/11/03 09:46:32;;;;;;;;;72.50;59.00;15.70;68.10;;;;;;5035335;28;9630;-62
2021/11/03 09:49:17;;;;;;;;;65.75;54.00;15.80;68.20;;;;;;5035980;28;8778;-60
2021/11/03 09:51:46;;;;;;;;;64.00;53.00;16.20;67.20;;;;;;5036136;28;8809;-59
2021/11/03 09:54:21;;;;;;;;;67.00;55.75;16.60;65.20;;;;;;5036094;28;8825;-59
2021/11/03 09:57:09;;;;;;;;;65.75;54.00;17.10;64.20;;;;;;5035679;28;8770;-58
2021/11/03 09:59:43;;;;;;;;;62.75;52.50;17.10;63.90;;;;;;5005030;28;8887;-57
2021/11/03 10:02:30;;;;;;;;;65.50;54.25;17.40;63.40;;;;;;5035694;28;8947;-60
2021/11/03 10:05:30;;;;;;;;;61.25;50.50;18.90;60.80;;;;;;5035496;28;8785;-58
2021/11/03 10:08:12;;;;;;;;;57.25;47.25;23.20;52.30;;;;;;5002442;28;8890;-60
2021/11/03 10:10:42;;;;;;;;;55.00;47.00;25.50;45.70;;;;;;5036358;28;9489;-60
2021/11/03 10:13:21;;;;;;;;;56.00;47.00;26.90;42.20;;;;;;5035359;28;8811;-62
2021/11/03 10:16:01;;;;;;;;;54.00;45.00;29.30;39.10;;;;;;5035227;28;8926;-62
2021/11/03 10:18:33;;;;;;;;;49.33;42.33;30.20;36.10;;;;;;5067530;28;8872;-61
2021/11/03 10:21:11;;;;;;;;;53.00;44.67;27.80;36.90;;;;;;5034394;28;8832;-62
2021/11/03 10:23:37;;;;;;;;;52.33;44.33;26.50;39.30;;;;;;5034727;28;9496;-61
2021/11/03 10:26:11;;;;;;;;;52.33;44.67;25.20;40.30;;;;;;5033369;28;8883;-60
2021/11/03 10:28:44;;;;;;;;;53.33;45.33;25.20;41.70;;;;;;5035033;28;8871;-60
2021/11/03 10:31:19;;;;;;;;;50.00;43.00;24.90;41.60;;;;;;5035793;28;8899;-57
2021/11/03 10:33:46;;;;;;;;;54.00;45.33;24.60;42.80;;;;;;5035245;28;8880;-70
2021/11/03 10:36:23;;;;;;;;;50.33;42.67;25.00;41.90;;;;;;5033401;28;9443;-61
2021/11/03 10:39:01;;;;;;;;;49.33;42.00;25.90;42.60;;;;;;5032548;28;8850;-60
2021/11/03 10:41:35;;;;;;;;;45.33;39.00;26.90;39.10;;;;;;5031584;28;8769;-60
2021/11/03 10:44:16;;;;;;;;;50.67;42.67;27.90;37.50;;;;;;5032096;28;8808;-60
2021/11/03 10:46:52;;;;;;;;;47.00;40.67;28.70;36.90;;;;;;5031704;28;8884;-61
2021/11/03 10:49:25;;;;;;;;;48.33;41.33;30.60;33.80;;;;;;5047736;28;8790;-61
2021/11/03 10:52:01;;;;;;;;;47.67;40.67;33.10;30.90;;;;;;5031628;28;8867;-63
2021/11/03 10:54:47;;;;;;;;;42.00;36.67;32.30;30.80;;;;;;5034055;28;9813;-61
2021/11/03 10:57:25;;;;;;;;;42.00;36.00;32.50;29.80;;;;;;5024619;28;8770;-61
2021/11/03 11:00:04;;;;;;;;;42.00;36.33;31.10;30.50;;;;;;5033396;28;8773;-61
2021/11/03 11:02:31;;;;;;;;;44.00;38.00;29.80;32.40;;;;;;5032955;28;8805;-61
2021/11/03 11:05:02;;;;;;;;;40.00;35.67;29.50;33.10;;;;;;5034513;28;8773;-61
2021/11/03 11:07:39;;;;;;;;;41.00;36.00;30.70;33.00;;;;;;5033955;28;8854;-60
2021/11/03 11:10:17;;;;;;;;;37.67;33.00;34.20;30.60;;;;;;5032521;28;8758;-61
2021/11/03 11:12:44;;;;;;;;;40.33;34.33;35.40;28.00;;;;;;5033484;28;8790;-63
2021/11/03 11:15:18;;;;;;;;;42.00;35.33;36.60;26.50;;;;;;5031217;28;8797;-61
2021/11/03 11:18:11;;;;;;;;;35.33;31.67;35.60;26.40;;;;;;5033031;28;8754;-56
2021/11/03 11:20:43;;;;;;;;;28.33;27.33;35.40;26.40;;;;;;5003078;28;11540;-60
2021/11/03 11:23:48;;;;;;;;;31.00;30.67;37.30;25.70;;;;;;5032905;28;8836;-61
2021/11/03 11:26:37;;;;;;;;;28.33;27.67;36.20;26.00;;;;;;5031156;28;11678;-60
2021/11/03 11:29:06;;;;;;;;;33.67;30.67;37.50;25.40;;;;;;5033207;28;11516;-62
2021/11/03 11:31:35;;;;;;;;;31.67;29.33;38.80;24.20;;;;;;5030900;28;8785;-63
2021/11/03 11:34:27;;;;;;;;;31.33;30.33;38.30;24.00;;;;;;5032922;28;11489;-61
2021/11/03 11:37:12;;;;;;;;;27.33;26.67;39.00;23.70;;;;;;5033129;28;8800;-61
2021/11/03 11:40:07;;;;;;;;;30.00;28.67;39.20;22.80;;;;;;5031015;28;11540;-61
2021/11/03 11:42:50;;;;;;;;;30.67;28.33;37.40;24.40;;;;;;5031552;28;8809;-64
2021/11/03 11:45:26;;;;;;;;;27.67;27.00;36.30;25.50;;;;;;5030326;28;8770;-61
2021/11/03 11:48:03;;;;;;;;;24.33;24.33;37.30;25.00;;;;;;5031878;28;11527;-63
2021/11/03 11:50:35;;;;;;;;;25.67;25.67;38.40;23.60;;;;;;5033999;28;12208;-66
2021/11/03 11:53:01;;;;;;;;;20.75;20.75;39.40;22.50;;;;;;5034055;28;11546;-63
2021/11/03 11:55:31;;;;;;;;;27.67;27.67;39.80;22.70;;;;;;5033733;28;12175;-65
2021/11/03 11:58:06;;;;;;;;;23.00;23.00;40.50;22.30;;;;;;5033909;28;11600;-64
2021/11/03 12:00:34;;;;;;;;;28.00;27.33;39.40;22.60;;;;;;5032295;28;11498;-62
2021/11/03 12:03:09;;;;;;;;;24.67;24.67;39.50;22.60;;;;;;5031882;28;11510;-62
2021/11/03 12:05:49;;;;;;;;;19.50;19.50;39.40;22.00;;;;;;5032660;28;11715;-63
2021/11/03 12:08:19;;;;;;;;;22.00;21.00;39.90;21.70;;;;;;5032527;28;12199;-63
2021/11/03 12:10:57;;;;;;;;;21.00;21.00;39.70;21.30;;;;;;5035282;28;11501;-59
2021/11/03 12:13:27;;;;;;;;;14.25;14.25;39.40;21.60;;;;;;5035338;28;12254;-62
2021/11/03 12:15:53;;;;;;;;;13.25;13.25;37.40;22.90;;;;;;5036422;28;11595;-62
2021/11/03 12:18:27;;;;;;;;;12.75;12.75;37.30;23.30;;;;;;5036466;28;11534;-62
2021/11/03 12:21:03;;;;;;;;;11.75;11.75;36.40;23.10;;;;;;5036769;28;8818;-62
2021/11/03 12:23:48;;;;;;;;;10.75;10.75;35.30;23.90;;;;;;5037388;28;11559;-63
2021/11/03 12:26:29;;;;;;;;;10.50;10.50;33.10;25.10;;;;;;5036837;28;12195;-61
2021/11/03 12:29:16;;;;;;;;;12.75;12.75;30.70;27.20;;;;;;5035422;28;11547;-58
2021/11/03 12:31:42;;;;;;;;;14.25;14.25;30.20;27.80;;;;;;5035337;28;11493;-56
2021/11/03 12:34:08;;;;;;;;;13.25;13.25;29.50;28.60;;;;;;5036178;28;11506;-60
2021/11/03 12:36:49;;;;;;;;;7.75;7.75;29.30;29.30;;;;;;5035571;28;8786;-60
2021/11/03 12:39:30;;;;;;;;;12.50;12.50;28.10;29.10;;;;;;5034462;28;8778;-61
2021/11/03 12:42:03;;;;;;;;;14.25;14.25;26.60;32.20;;;;;;5037192;28;11499;-58
2021/11/03 12:44:42;;;;;;;;;15.00;15.00;28.60;31.40;;;;;;5037596;28;12202;-66
2021/11/03 12:47:29;;;;;;;;;15.00;15.00;28.30;29.70;;;;;;5036354;28;11518;-68
2021/11/03 12:50:14;;;;;;;;;12.00;12.00;27.40;32.00;;;;;;5037276;28;11548;-70